Flight Track Log - Related Links

Times and Time Zones

All times are in EDT time to prevent confusion due to time zone crossing. See the ASQ5958 flight status page for this flight to view local times or setup timezone preferences in your user account.

Time Position Orientation Groundspeed Altitude Reporting Facility
EDT Latitude Longitude Course Direction KTS MPH feet Rate Location/Type
Mon 08:29:39 AM 42.2314 -83.3342 292° West 159 183 1,300  Level Cleveland Center
Mon 08:31:05 AM 42.3131 -83.3181 North 243 280 4,000 2,178 Climbing Cleveland Center
Mon 08:32:00 AM 42.2838 -83.6360 283° West  Level FlightAware Approximate
Mon 08:32:05 AM 42.3731 -83.3375 347° North 272 313 6,600  Level Cleveland Center
Mon 08:33:00 AM 42.3005 -83.7361 285° West  Level FlightAware Approximate
Mon 08:33:06 AM 42.3828 -83.4478 277° West 287 330 9,300  Level Cleveland Center
Mon 08:34:00 AM 42.3220 -83.8344 292° West  Level FlightAware Approximate
Mon 08:34:28 AM 42.3933 -83.6056 275° West 337 388 10,000  Level Cleveland Center
Mon 08:35:00 AM 42.3506 -83.9295 292° West  Level FlightAware Approximate
Mon 08:35:28 AM 42.3989 -83.7156 274° West 330 380 10,000  Level Cleveland Center
Mon 08:36:28 AM 42.4061 -83.8311 275° West 315 362 11,600 1,400 Climbing Cleveland Center
Mon 08:37:28 AM 42.4128 -83.9525 274° West 315 362 12,800 800 Climbing Cleveland Center
Mon 08:38:28 AM 42.4194 -84.0822 274° West 330 380 13,200 950 Climbing Cleveland Center
Mon 08:39:28 AM 42.4258 -84.2178 274° West 352 405 14,700 1,450 Climbing Cleveland Center
Mon 08:40:28 AM 42.4297 -84.3531 272° West 363 418 16,100 1,377 Climbing Cleveland Center
Mon 08:41:30 AM 42.4339 -84.4772 273° West 367 422 17,500 1,306 Climbing Chicago Center
Mon 08:42:32 AM 42.4381 -84.6175 272° West 372 428 18,800 1,403 Climbing Chicago Center
Mon 08:43:34 AM 42.4408 -84.7914 271° West 382 440 20,400 1,317 Climbing Chicago Center
Mon 08:44:35 AM 42.4456 -84.9392 273° West 389 448 21,500 1,024 Climbing Chicago Center
Mon 08:45:37 AM 42.4503 -85.0908 272° West 400 460 22,500 968 Climbing Chicago Center
Mon 08:46:39 AM 42.4519 -85.2475 271° West 413 475 23,500 732 Climbing Chicago Center
Mon 08:47:40 AM 42.4553 -85.4044 272° West 417 480 24,000 244 Climbing Chicago Center
Mon 08:48:42 AM 42.4578 -85.5578 271° West 410 472 24,000 -145 Level Chicago Center
Mon 08:49:44 AM 42.4603 -85.7075 271° West 399 459 23,700 -927 Descending Chicago Center
Mon 08:50:45 AM 42.4625 -85.8611 271° West 405 466 22,100 -1,610 Descending Chicago Center
Mon 08:51:47 AM 42.4647 -86.0100 271° West 396 456 20,400 -1,016 Descending Chicago Center
Mon 08:52:49 AM 42.4653 -86.1922 270° West 401 461 20,000 -194 Descending Chicago Center
Mon 08:53:51 AM 42.4633 -86.3481 269° West 411 473 20,000 -98 Level Chicago Center
Mon 08:54:52 AM 42.4622 -86.5050 270° West 415 478 19,800 -634 Descending Chicago Center
Mon 08:55:54 AM 42.4603 -86.6592 269° West 411 473 18,700 -1,016 Descending Chicago Center
Mon 08:56:56 AM 42.4614 -86.8086 271° West 407 468 17,700 -1,161 Descending Chicago Center
Mon 08:57:58 AM 42.4581 -86.9606 268° West 398 458 16,300 -1,415 Descending Chicago Center
Mon 08:58:59 AM 42.4533 -87.1092 268° West 395 455 14,800 -1,463 Descending Chicago Center
Mon 09:00:01 AM 42.4094 -87.2753 250° West 393 452 13,300 -2,177 Descending Chicago Center
Mon 09:01:03 AM 42.3750 -87.4044 250° West 387 445 10,300 -1,597 Descending Chicago Center
Mon 09:02:05 AM 42.3342 -87.5356 247° West 383 441 10,000 -435 Descending Chicago Center
Mon 09:03:07 AM 42.2631 -87.6142 219° Southwest 333 383 9,400 -1,306 Descending Chicago Center
Mon 09:04:09 AM 42.1836 -87.6986 218° Southwest 306 352 7,300 -1,161 Descending Chicago Center
Mon 09:05:11 AM 42.1197 -87.7664 218° Southwest 296 341 7,000 -146 Descending Chicago Center
Mon 09:06:12 AM 42.0922 -87.8658 250° West 298 343 7,000  Level Chicago Center
Mon 09:07:14 AM 42.0903 -87.9706 269° West 281 323 7,000  Level Chicago Center
Mon 09:08:16 AM 42.0908 -88.0644 270° West 261 300 7,000 -823 Level Chicago Center
Mon 09:09:18 AM 42.0631 -88.1669 250° West 245 282 5,300 -1,548 Descending Chicago Center
Mon 09:10:20 AM 42.0075 -88.1725 184° South 241 277 3,800 -1,122 Descending Chicago Center
Mon 09:11:21 AM 42.0000 -88.1000 98° East 208 239 3,000 -787 Descending Chicago TRACON

Login

Don't have an account? Register now (free) for customized features, flight alerts, and more!